Flight Track Log - Related Links

Times and Time Zones

All times are in EST time to prevent confusion due to time zone crossing. See the C-GAWM flight status page for this flight to view local times or setup timezone preferences in your user account.

Time Position Orientation Groundspeed Altitude Reporting Facility
EST Latitude Longitude Course Direction KTS MPH feet Rate Location/Type
Mon 01:58:39 PM 51.6500 -100.5500 141° Southeast 180 207 9,000  Level Winnipeg Center
Mon 01:59:39 PM 51.6167 -100.5000 137° Southeast 180 207 9,000  Level Winnipeg Center
Mon 02:00:39 PM 51.5833 -100.4333 129° Southeast 180 207 9,000  Level Winnipeg Center
Mon 02:01:39 PM 51.5333 -100.3833 148° Southeast 180 207 9,000  Level Winnipeg Center
Mon 02:02:39 PM 51.5000 -100.3333 137° Southeast 180 207 9,000  Level Winnipeg Center
Mon 02:03:39 PM 51.4667 -100.2667 129° Southeast 180 207 9,000  Level Winnipeg Center
Mon 02:04:00 PM 51.8922 -100.8951 141° Southeast  Level FlightAware Approximate
Mon 02:04:39 PM 51.4333 -100.2167 137° Southeast 180 207 9,000  Level Winnipeg Center
Mon 02:05:39 PM 51.4000 -100.1500 129° Southeast 180 207 9,000  Level Winnipeg Center
Mon 02:06:39 PM 51.3667 -100.1000 137° Southeast 180 207 9,000  Level Winnipeg Center
Mon 02:07:39 PM 51.3333 -100.0500 137° Southeast 190 219 9,000  Level Winnipeg Center
Mon 02:08:39 PM 51.2833 -99.9833 140° Southeast 190 219 9,000  Level Winnipeg Center
Mon 02:09:39 PM 51.2500 -99.9333 137° Southeast 190 219 9,000  Level Winnipeg Center
Mon 02:10:39 PM 51.2000 -99.8833 148° Southeast 200 230 9,000  Level Winnipeg Center
Mon 02:11:39 PM 51.1667 -99.8167 129° Southeast 190 219 9,000  Level Winnipeg Center
Mon 02:12:39 PM 51.1167 -99.7333 134° Southeast 190 219 9,000  Level Winnipeg Center
Mon 02:13:39 PM 51.0833 -99.6833 137° Southeast 190 219 9,000  Level Winnipeg Center
Mon 02:14:39 PM 51.0333 -99.6333 148° Southeast 200 230 9,000  Level Winnipeg Center
Mon 02:15:39 PM 51.0000 -99.5667 128° Southeast 200 230 9,000  Level Winnipeg Center
Mon 02:16:39 PM 50.9500 -99.5167 148° Southeast 200 230 9,000  Level Winnipeg Center
Mon 02:17:39 PM 50.9167 -99.4667 137° Southeast 190 219 9,000  Level Winnipeg Center
Mon 02:18:39 PM 50.8667 -99.4000 140° Southeast 200 230 9,000  Level Winnipeg Center
Mon 02:19:38 PM 50.8500 -99.3500 118° Southeast 200 230 9,000  Level Winnipeg Center
Mon 02:20:38 PM 50.8000 -99.3000 148° Southeast 200 230 9,000  Level Winnipeg Center
Mon 02:21:38 PM 50.7667 -99.2167 122° Southeast 200 230 9,000  Level Winnipeg Center
Mon 02:22:38 PM 50.7167 -99.1667 148° Southeast 200 230 9,000  Level Winnipeg Center
Mon 02:23:38 PM 50.6833 -99.1000 128° Southeast 200 230 9,000  Level Winnipeg Center
Mon 02:24:38 PM 50.6500 -99.0500 136° Southeast 200 230 9,000  Level Winnipeg Center
Mon 02:25:38 PM 50.6000 -99.0000 148° Southeast 200 230 9,000  Level Winnipeg Center
Mon 02:26:38 PM 50.5667 -98.9333 128° Southeast 200 230 9,000  Level Winnipeg Center
Mon 02:27:38 PM 50.5167 -98.8833 148° Southeast 200 230 9,000  Level Winnipeg Center
Mon 02:28:38 PM 50.4667 -98.8000 133° Southeast 200 230 9,000  Level Winnipeg Center
Mon 02:29:38 PM 50.4333 -98.7500 136° Southeast 200 230 9,000  Level Winnipeg Center
Mon 02:30:38 PM 50.4000 -98.7000 136° Southeast 200 230 9,000  Level Winnipeg Center
Mon 02:31:38 PM 50.3833 -98.6167 107° East 210 242 9,000  Level Winnipeg Center
Mon 02:32:38 PM 50.3667 -98.5167 105° East 210 242 9,000  Level Winnipeg Center
Mon 02:33:38 PM 50.3500 -98.4333 107° East 210 242 9,000 -50 Level Winnipeg Center
Mon 02:34:38 PM 50.3333 -98.3500 107° East 210 242 8,900 -50 Descending Winnipeg Center
Mon 02:35:38 PM 50.3167 -98.2500 105° East 210 242 8,900  Level Winnipeg Center
Mon 02:36:38 PM 50.3000 -98.1667 107° East 210 242 8,900 33 Level Winnipeg Center
Mon 02:38:38 PM 50.2833 -97.9833 98° East 210 242 9,000 33 Climbing Winnipeg Center
Mon 02:39:38 PM 50.2667 -97.9000 107° East 210 242 9,000  Level Winnipeg Center
Mon 02:40:38 PM 50.2333 -97.8333 128° Southeast 200 230 9,000 -100 Level Winnipeg Center
Mon 02:41:38 PM 50.2000 -97.7833 136° Southeast 210 242 8,800 -350 Descending Winnipeg Center
Mon 02:42:38 PM 50.1500 -97.7000 133° Southeast 210 242 8,300 -500 Descending Winnipeg Center
Mon 02:43:38 PM 50.1167 -97.6500 136° Southeast 210 242 7,800 -500 Descending Winnipeg Center
Mon 02:44:38 PM 50.0667 -97.5833 139° Southeast 210 242 7,300 -650 Descending Winnipeg Center
Mon 02:45:38 PM 50.0333 -97.5167 128° Southeast 210 242 6,500 -700 Descending Winnipeg Center
Mon 02:46:38 PM 49.9833 -97.4667 147° Southeast 210 242 5,900 -700 Descending Winnipeg Center
Mon 02:47:38 PM 49.9333 -97.4333 157° South 200 230 5,100 -700 Descending Winnipeg Center
Mon 02:48:38 PM 49.8833 -97.4000 157° South 190 219 4,500 -800 Descending Winnipeg Center
Mon 02:49:38 PM 49.8333 -97.3833 168° South 190 219 3,500 -900 Descending Winnipeg Center
Mon 02:50:38 PM 49.8000 -97.3333 136° Southeast 190 219 2,700 -650 Descending Winnipeg Center
Mon 02:51:38 PM 49.8167 -97.2500 73° East 170 196 2,200 -550 Descending Winnipeg Center
Mon 02:52:38 PM 49.8500 -97.2500 360° North 110 127 1,600 -700 Descending Winnipeg Center
Mon 02:53:38 PM 49.8833 -97.2333 18° North 110 127 800 -800 Descending Winnipeg Center

Login

Don't have an account? Register now (free) for customized features, flight alerts, and more!